KLAF/LAF METAR and TAF weather

Enter ICAO airport designator
Station Type Date Time Source
KLAF METAR 2018/12/15 04:54 UTC NOAA

KLAF 150454Z AUTO 02010G19KT 6SM BR OVC005 05/05 A3010 RMK AO2 SLP195 T00500050 400890044


Station Type Date Time Source
KLAF Decoded METAR 2018/12/15 04:54 UTC NOAA

LAFAYETTE PURDUE UNIV AIRPORT , IN, United States (KLAF) 40-25N 86-57W 182M
Dec 14, 2018 - 11:54 PM EST / 2018.12.15 0454 UTC
Wind: from the NNE (020 degrees) at 12 MPH (10 KT) gusting to 22 MPH (19 KT):0
Visibility: 6 mile(s):0
Sky conditions: overcast
Weather: mist
Temperature: 41.0 F (5.0 C)
Dew Point: 41.0 F (5.0 C)
Relative Humidity: 100%
Pressure (altimeter): 30.1 in. Hg (1019 hPa)
ob: KLAF 150454Z AUTO 02010G19KT 6SM BR OVC005 05/05 A3010 RMK AO2 SLP195 T00500050 400890044
cycle: 5

Station Type Date Time Source
KLAF TAF 2018/12/15 02:06 UTC NOAA

TAF
AMD KLAF 150205Z 1502/1524 01013KT 3SM BR OVC004
FM150400 03010KT P6SM VCSH BKN004
FM150900 04011KT P6SM VCSH BKN011
FM151300 04012KT P6SM VCSH BKN020
FM151400 04012KT P6SM VCSH BKN040
FM151800 05012KT P6SM BKN040
AMD LTD TO CLD VIS AND WIND TIL 151400


Example: see airport list